sensor_id;sensor_type;location;lat;lon;timestamp;P1;durP1;ratioP1;P2;durP2;ratioP2
25391;SDS011;13329;48.402;11.718;2023-08-06T00:00:40;5.87;;;3.77;;
25391;SDS011;13329;48.402;11.718;2023-08-06T00:03:05;9.33;;;3.43;;
25391;SDS011;13329;48.402;11.718;2023-08-06T00:05:30;8.93;;;4.20;;
25391;SDS011;13329;48.402;11.718;2023-08-06T00:07:56;7.63;;;4.40;;
25391;SDS011;13329;48.402;11.718;2023-08-06T00:10:21;11.20;;;4.30;;
25391;SDS011;13329;48.402;11.718;2023-08-06T00:12:46;5.60;;;4.30;;
25391;SDS011;13329;48.402;11.718;2023-08-06T00:15:11;7.93;;;3.33;;
25391;SDS011;13329;48.402;11.718;2023-08-06T00:17:36;5.57;;;4.13;;
25391;SDS011;13329;48.402;11.718;2023-08-06T00:20:02;5.63;;;3.70;;
25391;SDS011;13329;48.402;11.718;2023-08-06T00:22:30;9.00;;;4.57;;
25391;SDS011;13329;48.402;11.718;2023-08-06T00:24:55;4.88;;;3.38;;
25391;SDS011;13329;48.402;11.718;2023-08-06T00:27:22;5.05;;;3.25;;
25391;SDS011;13329;48.402;11.718;2023-08-06T00:29:47;5.30;;;3.23;;
25391;SDS011;13329;48.402;11.718;2023-08-06T00:32:12;6.10;;;3.67;;
25391;SDS011;13329;48.402;11.718;2023-08-06T00:34:38;6.27;;;3.83;;
25391;SDS011;13329;48.402;11.718;2023-08-06T00:37:03;6.00;;;3.57;;
25391;SDS011;13329;48.402;11.718;2023-08-06T00:39:28;5.53;;;2.80;;
25391;SDS011;13329;48.402;11.718;2023-08-06T00:41:53;5.57;;;3.07;;
25391;SDS011;13329;48.402;11.718;2023-08-06T00:44:19;4.03;;;2.60;;
25391;SDS011;13329;48.402;11.718;2023-08-06T00:46:44;4.03;;;2.60;;
25391;SDS011;13329;48.402;11.718;2023-08-06T00:49:09;2.80;;;2.13;;
25391;SDS011;13329;48.402;11.718;2023-08-06T00:51:35;6.03;;;2.77;;
25391;SDS011;13329;48.402;11.718;2023-08-06T00:54:00;6.30;;;2.47;;
25391;SDS011;13329;48.402;11.718;2023-08-06T00:56:26;3.85;;;2.60;;
25391;SDS011;13329;48.402;11.718;2023-08-06T00:58:51;3.93;;;2.47;;
25391;SDS011;13329;48.402;11.718;2023-08-06T01:01:17;4.60;;;2.90;;
25391;SDS011;13329;48.402;11.718;2023-08-06T01:03:42;4.35;;;2.80;;
25391;SDS011;13329;48.402;11.718;2023-08-06T01:06:07;3.17;;;2.27;;
25391;SDS011;13329;48.402;11.718;2023-08-06T01:08:40;4.57;;;2.35;;
25391;SDS011;13329;48.402;11.718;2023-08-06T01:11:21;3.70;;;2.28;;
25391;SDS011;13329;48.402;11.718;2023-08-06T01:13:54;4.43;;;2.83;;
25391;SDS011;13329;48.402;11.718;2023-08-06T01:16:22;3.72;;;2.30;;
25391;SDS011;13329;48.402;11.718;2023-08-06T01:18:49;7.18;;;2.55;;
25391;SDS011;13329;48.402;11.718;2023-08-06T01:21:14;5.13;;;2.90;;
25391;SDS011;13329;48.402;11.718;2023-08-06T01:23:40;4.32;;;2.50;;
25391;SDS011;13329;48.402;11.718;2023-08-06T01:26:17;5.22;;;2.92;;
25391;SDS011;13329;48.402;11.718;2023-08-06T01:31:14;5.53;;;3.03;;
25391;SDS011;13329;48.402;11.718;2023-08-06T01:33:41;4.82;;;3.53;;
25391;SDS011;13329;48.402;11.718;2023-08-06T01:36:08;5.53;;;3.40;;
25391;SDS011;13329;48.402;11.718;2023-08-06T01:38:34;8.10;;;3.95;;
25391;SDS011;13329;48.402;11.718;2023-08-06T01:40:59;8.97;;;4.03;;
25391;SDS011;13329;48.402;11.718;2023-08-06T01:43:24;7.93;;;3.87;;
25391;SDS011;13329;48.402;11.718;2023-08-06T01:45:49;9.67;;;5.23;;
25391;SDS011;13329;48.402;11.718;2023-08-06T01:48:15;11.43;;;5.40;;
25391;SDS011;13329;48.402;11.718;2023-08-06T01:50:40;11.07;;;5.30;;
25391;SDS011;13329;48.402;11.718;2023-08-06T01:53:05;11.47;;;5.70;;
25391;SDS011;13329;48.402;11.718;2023-08-06T01:55:30;9.10;;;5.43;;
25391;SDS011;13329;48.402;11.718;2023-08-06T01:57:55;11.57;;;5.93;;
25391;SDS011;13329;48.402;11.718;2023-08-06T02:00:20;9.60;;;5.13;;
25391;SDS011;13329;48.402;11.718;2023-08-06T02:02:46;13.43;;;5.70;;
25391;SDS011;13329;48.402;11.718;2023-08-06T02:05:11;11.70;;;5.57;;
25391;SDS011;13329;48.402;11.718;2023-08-06T02:07:36;12.00;;;5.80;;
25391;SDS011;13329;48.402;11.718;2023-08-06T02:10:01;7.73;;;4.60;;
25391;SDS011;13329;48.402;11.718;2023-08-06T02:12:26;7.93;;;5.20;;
25391;SDS011;13329;48.402;11.718;2023-08-06T02:14:51;8.90;;;4.30;;
25391;SDS011;13329;48.402;11.718;2023-08-06T02:17:17;10.40;;;4.23;;
25391;SDS011;13329;48.402;11.718;2023-08-06T02:19:42;8.60;;;5.03;;
25391;SDS011;13329;48.402;11.718;2023-08-06T02:22:08;15.55;;;4.95;;
25391;SDS011;13329;48.402;11.718;2023-08-06T02:24:33;7.47;;;4.40;;
25391;SDS011;13329;48.402;11.718;2023-08-06T02:26:58;5.63;;;3.50;;
25391;SDS011;13329;48.402;11.718;2023-08-06T02:29:23;6.80;;;4.33;;
25391;SDS011;13329;48.402;11.718;2023-08-06T02:31:48;9.13;;;4.37;;
25391;SDS011;13329;48.402;11.718;2023-08-06T02:34:14;9.10;;;3.90;;
25391;SDS011;13329;48.402;11.718;2023-08-06T02:36:39;7.67;;;3.90;;
25391;SDS011;13329;48.402;11.718;2023-08-06T02:39:04;7.03;;;4.13;;
25391;SDS011;13329;48.402;11.718;2023-08-06T02:41:29;10.03;;;3.60;;
25391;SDS011;13329;48.402;11.718;2023-08-06T02:43:54;6.97;;;4.10;;
25391;SDS011;13329;48.402;11.718;2023-08-06T02:46:19;5.77;;;3.63;;
25391;SDS011;13329;48.402;11.718;2023-08-06T02:48:45;4.53;;;3.17;;
25391;SDS011;13329;48.402;11.718;2023-08-06T02:51:10;5.53;;;3.67;;
25391;SDS011;13329;48.402;11.718;2023-08-06T02:53:35;5.50;;;3.20;;
25391;SDS011;13329;48.402;11.718;2023-08-06T02:56:00;4.70;;;3.23;;
25391;SDS011;13329;48.402;11.718;2023-08-06T02:58:25;4.78;;;3.10;;
25391;SDS011;13329;48.402;11.718;2023-08-06T03:01:04;4.37;;;3.17;;
25391;SDS011;13329;48.402;11.718;2023-08-06T03:03:30;6.88;;;4.00;;
25391;SDS011;13329;48.402;11.718;2023-08-06T03:05:55;6.78;;;3.90;;
25391;SDS011;13329;48.402;11.718;2023-08-06T03:08:20;7.63;;;4.50;;
25391;SDS011;13329;48.402;11.718;2023-08-06T03:10:49;9.98;;;3.53;;
25391;SDS011;13329;48.402;11.718;2023-08-06T03:13:15;4.57;;;3.28;;
25391;SDS011;13329;48.402;11.718;2023-08-06T03:15:40;8.40;;;3.85;;
25391;SDS011;13329;48.402;11.718;2023-08-06T03:18:05;8.07;;;4.50;;
25391;SDS011;13329;48.402;11.718;2023-08-06T03:20:31;7.53;;;3.53;;
25391;SDS011;13329;48.402;11.718;2023-08-06T03:22:57;6.65;;;4.00;;
25391;SDS011;13329;48.402;11.718;2023-08-06T03:25:22;8.53;;;4.00;;
25391;SDS011;13329;48.402;11.718;2023-08-06T03:27:47;7.80;;;3.73;;
25391;SDS011;13329;48.402;11.718;2023-08-06T03:30:12;9.23;;;3.83;;
25391;SDS011;13329;48.402;11.718;2023-08-06T03:32:37;9.30;;;4.13;;
25391;SDS011;13329;48.402;11.718;2023-08-06T03:35:02;7.33;;;3.80;;
25391;SDS011;13329;48.402;11.718;2023-08-06T03:37:28;5.53;;;3.38;;
25391;SDS011;13329;48.402;11.718;2023-08-06T03:39:53;5.13;;;3.03;;
25391;SDS011;13329;48.402;11.718;2023-08-06T03:42:18;6.07;;;3.77;;
25391;SDS011;13329;48.402;11.718;2023-08-06T03:44:43;3.87;;;3.03;;
25391;SDS011;13329;48.402;11.718;2023-08-06T03:47:08;5.60;;;3.30;;
25391;SDS011;13329;48.402;11.718;2023-08-06T03:49:34;9.97;;;4.00;;
25391;SDS011;13329;48.402;11.718;2023-08-06T03:51:59;5.43;;;3.40;;
25391;SDS011;13329;48.402;11.718;2023-08-06T03:54:24;6.83;;;3.20;;
25391;SDS011;13329;48.402;11.718;2023-08-06T03:56:49;10.60;;;3.73;;
25391;SDS011;13329;48.402;11.718;2023-08-06T03:59:14;6.40;;;3.40;;
25391;SDS011;13329;48.402;11.718;2023-08-06T04:01:39;6.20;;;3.43;;
25391;SDS011;13329;48.402;11.718;2023-08-06T04:04:05;4.40;;;2.93;;
25391;SDS011;13329;48.402;11.718;2023-08-06T04:06:30;7.00;;;2.93;;
25391;SDS011;13329;48.402;11.718;2023-08-06T04:08:55;8.00;;;2.83;;
25391;SDS011;13329;48.402;11.718;2023-08-06T04:11:20;4.60;;;2.50;;
25391;SDS011;13329;48.402;11.718;2023-08-06T04:13:45;11.57;;;3.67;;
25391;SDS011;13329;48.402;11.718;2023-08-06T04:16:10;6.10;;;2.30;;
25391;SDS011;13329;48.402;11.718;2023-08-06T04:18:36;5.83;;;2.90;;
25391;SDS011;13329;48.402;11.718;2023-08-06T04:21:01;4.90;;;3.00;;
25391;SDS011;13329;48.402;11.718;2023-08-06T04:23:26;4.88;;;3.08;;
25391;SDS011;13329;48.402;11.718;2023-08-06T04:25:52;7.07;;;3.70;;
25391;SDS011;13329;48.402;11.718;2023-08-06T04:28:17;4.67;;;3.13;;
25391;SDS011;13329;48.402;11.718;2023-08-06T04:30:42;5.30;;;3.23;;
25391;SDS011;13329;48.402;11.718;2023-08-06T04:33:07;5.03;;;3.17;;
25391;SDS011;13329;48.402;11.718;2023-08-06T04:35:32;6.33;;;2.90;;
25391;SDS011;13329;48.402;11.718;2023-08-06T04:37:57;6.40;;;3.03;;
25391;SDS011;13329;48.402;11.718;2023-08-06T04:40:23;6.43;;;3.30;;
25391;SDS011;13329;48.402;11.718;2023-08-06T04:42:48;3.75;;;2.33;;
25391;SDS011;13329;48.402;11.718;2023-08-06T04:45:13;4.17;;;2.60;;
25391;SDS011;13329;48.402;11.718;2023-08-06T04:47:38;3.83;;;2.60;;
25391;SDS011;13329;48.402;11.718;2023-08-06T04:50:04;6.30;;;2.97;;
25391;SDS011;13329;48.402;11.718;2023-08-06T04:52:29;3.83;;;2.83;;
25391;SDS011;13329;48.402;11.718;2023-08-06T04:54:54;8.07;;;2.47;;
25391;SDS011;13329;48.402;11.718;2023-08-06T04:57:20;3.10;;;2.10;;
25391;SDS011;13329;48.402;11.718;2023-08-06T04:59:45;3.00;;;2.30;;
25391;SDS011;13329;48.402;11.718;2023-08-06T05:02:10;7.93;;;3.40;;
25391;SDS011;13329;48.402;11.718;2023-08-06T05:04:35;5.93;;;2.40;;
25391;SDS011;13329;48.402;11.718;2023-08-06T05:07:00;3.37;;;1.93;;
25391;SDS011;13329;48.402;11.718;2023-08-06T05:09:25;3.07;;;2.03;;
25391;SDS011;13329;48.402;11.718;2023-08-06T05:11:51;3.60;;;2.33;;
25391;SDS011;13329;48.402;11.718;2023-08-06T05:14:16;3.13;;;1.83;;
25391;SDS011;13329;48.402;11.718;2023-08-06T05:16:41;3.47;;;2.07;;
25391;SDS011;13329;48.402;11.718;2023-08-06T05:19:06;2.63;;;2.00;;
25391;SDS011;13329;48.402;11.718;2023-08-06T05:21:31;8.53;;;2.37;;
25391;SDS011;13329;48.402;11.718;2023-08-06T05:23:56;3.27;;;1.90;;
25391;SDS011;13329;48.402;11.718;2023-08-06T05:26:22;2.33;;;1.60;;
25391;SDS011;13329;48.402;11.718;2023-08-06T05:28:47;3.07;;;1.77;;
25391;SDS011;13329;48.402;11.718;2023-08-06T05:31:12;4.20;;;1.27;;
25391;SDS011;13329;48.402;11.718;2023-08-06T05:33:37;2.20;;;1.38;;
25391;SDS011;13329;48.402;11.718;2023-08-06T05:36:03;3.93;;;1.60;;
25391;SDS011;13329;48.402;11.718;2023-08-06T05:38:29;2.50;;;1.52;;
25391;SDS011;13329;48.402;11.718;2023-08-06T05:40:54;2.38;;;1.80;;
25391;SDS011;13329;48.402;11.718;2023-08-06T05:43:20;3.33;;;1.73;;
25391;SDS011;13329;48.402;11.718;2023-08-06T05:45:45;0.85;;;0.70;;
25391;SDS011;13329;48.402;11.718;2023-08-06T05:48:13;1.50;;;1.23;;
25391;SDS011;13329;48.402;11.718;2023-08-06T05:50:38;2.63;;;1.67;;
25391;SDS011;13329;48.402;11.718;2023-08-06T05:53:04;2.00;;;1.17;;
25391;SDS011;13329;48.402;11.718;2023-08-06T05:55:29;3.60;;;1.90;;
25391;SDS011;13329;48.402;11.718;2023-08-06T05:57:54;2.03;;;1.53;;
25391;SDS011;13329;48.402;11.718;2023-08-06T06:00:20;2.03;;;1.58;;
25391;SDS011;13329;48.402;11.718;2023-08-06T06:02:46;2.80;;;1.90;;
25391;SDS011;13329;48.402;11.718;2023-08-06T06:05:11;1.67;;;1.23;;
25391;SDS011;13329;48.402;11.718;2023-08-06T06:07:36;2.17;;;1.23;;
25391;SDS011;13329;48.402;11.718;2023-08-06T06:10:01;3.23;;;1.90;;
25391;SDS011;13329;48.402;11.718;2023-08-06T06:12:27;4.10;;;1.80;;
25391;SDS011;13329;48.402;11.718;2023-08-06T06:14:52;1.60;;;1.30;;
25391;SDS011;13329;48.402;11.718;2023-08-06T06:17:17;1.23;;;0.93;;
25391;SDS011;13329;48.402;11.718;2023-08-06T06:19:42;0.50;;;0.40;;
25391;SDS011;13329;48.402;11.718;2023-08-06T06:22:07;2.67;;;1.40;;
25391;SDS011;13329;48.402;11.718;2023-08-06T06:24:32;2.20;;;1.40;;
25391;SDS011;13329;48.402;11.718;2023-08-06T06:26:58;4.30;;;1.57;;
25391;SDS011;13329;48.402;11.718;2023-08-06T06:29:23;2.65;;;1.58;;
25391;SDS011;13329;48.402;11.718;2023-08-06T06:31:48;6.03;;;2.03;;
25391;SDS011;13329;48.402;11.718;2023-08-06T06:34:13;3.43;;;1.40;;
25391;SDS011;13329;48.402;11.718;2023-08-06T06:36:38;1.70;;;1.13;;
25391;SDS011;13329;48.402;11.718;2023-08-06T06:39:04;3.13;;;1.80;;
25391;SDS011;13329;48.402;11.718;2023-08-06T06:41:29;1.13;;;0.90;;
25391;SDS011;13329;48.402;11.718;2023-08-06T06:43:56;2.67;;;1.42;;
25391;SDS011;13329;48.402;11.718;2023-08-06T06:46:21;4.37;;;1.50;;
25391;SDS011;13329;48.402;11.718;2023-08-06T06:48:47;3.37;;;0.97;;
25391;SDS011;13329;48.402;11.718;2023-08-06T06:51:12;2.83;;;1.40;;
25391;SDS011;13329;48.402;11.718;2023-08-06T06:53:37;0.97;;;0.87;;
25391;SDS011;13329;48.402;11.718;2023-08-06T06:56:03;3.27;;;1.13;;
25391;SDS011;13329;48.402;11.718;2023-08-06T06:58:29;3.25;;;1.27;;
25391;SDS011;13329;48.402;11.718;2023-08-06T07:00:54;4.85;;;1.35;;
25391;SDS011;13329;48.402;11.718;2023-08-06T07:03:19;2.53;;;1.33;;
25391;SDS011;13329;48.402;11.718;2023-08-06T07:05:45;3.80;;;1.20;;
25391;SDS011;13329;48.402;11.718;2023-08-06T07:08:10;2.33;;;1.42;;
25391;SDS011;13329;48.402;11.718;2023-08-06T07:10:35;4.07;;;1.50;;
25391;SDS011;13329;48.402;11.718;2023-08-06T07:13:00;3.03;;;1.77;;
25391;SDS011;13329;48.402;11.718;2023-08-06T07:15:26;5.13;;;1.33;;
25391;SDS011;13329;48.402;11.718;2023-08-06T07:17:51;2.50;;;1.50;;
25391;SDS011;13329;48.402;11.718;2023-08-06T07:20:16;0.40;;;0.33;;
25391;SDS011;13329;48.402;11.718;2023-08-06T07:22:41;1.17;;;1.00;;
25391;SDS011;13329;48.402;11.718;2023-08-06T07:25:06;2.33;;;1.50;;
25391;SDS011;13329;48.402;11.718;2023-08-06T07:27:32;2.78;;;1.50;;
25391;SDS011;13329;48.402;11.718;2023-08-06T07:29:57;4.10;;;1.50;;
25391;SDS011;13329;48.402;11.718;2023-08-06T07:32:23;3.33;;;0.82;;
25391;SDS011;13329;48.402;11.718;2023-08-06T07:34:48;5.63;;;1.73;;
25391;SDS011;13329;48.402;11.718;2023-08-06T07:37:13;2.93;;;1.33;;
25391;SDS011;13329;48.402;11.718;2023-08-06T07:39:39;1.07;;;0.93;;
25391;SDS011;13329;48.402;11.718;2023-08-06T07:42:04;2.63;;;1.23;;
25391;SDS011;13329;48.402;11.718;2023-08-06T07:44:30;2.40;;;1.10;;
25391;SDS011;13329;48.402;11.718;2023-08-06T07:46:56;1.80;;;1.02;;
25391;SDS011;13329;48.402;11.718;2023-08-06T07:49:21;1.03;;;0.60;;
25391;SDS011;13329;48.402;11.718;2023-08-06T07:51:46;1.63;;;0.85;;
25391;SDS011;13329;48.402;11.718;2023-08-06T07:54:11;0.50;;;0.50;;
25391;SDS011;13329;48.402;11.718;2023-08-06T07:56:37;1.30;;;0.70;;
25391;SDS011;13329;48.402;11.718;2023-08-06T07:59:02;2.20;;;0.80;;
25391;SDS011;13329;48.402;11.718;2023-08-06T08:01:27;1.30;;;0.60;;
25391;SDS011;13329;48.402;11.718;2023-08-06T08:03:52;1.67;;;0.70;;
25391;SDS011;13329;48.402;11.718;2023-08-06T08:06:17;0.90;;;0.60;;
25391;SDS011;13329;48.402;11.718;2023-08-06T08:08:42;1.30;;;0.50;;
25391;SDS011;13329;48.402;11.718;2023-08-06T08:11:08;0.88;;;0.38;;
25391;SDS011;13329;48.402;11.718;2023-08-06T08:13:33;0.70;;;0.40;;
25391;SDS011;13329;48.402;11.718;2023-08-06T08:15:59;0.47;;;0.35;;
25391;SDS011;13329;48.402;11.718;2023-08-06T08:18:24;0.87;;;0.50;;
25391;SDS011;13329;48.402;11.718;2023-08-06T08:20:50;1.27;;;0.68;;
25391;SDS011;13329;48.402;11.718;2023-08-06T08:23:15;0.63;;;0.50;;
25391;SDS011;13329;48.402;11.718;2023-08-06T08:25:40;1.70;;;0.50;;
25391;SDS011;13329;48.402;11.718;2023-08-06T08:28:06;0.77;;;0.50;;
25391;SDS011;13329;48.402;11.718;2023-08-06T08:30:31;0.63;;;0.35;;
25391;SDS011;13329;48.402;11.718;2023-08-06T08:32:57;7.85;;;0.45;;
25391;SDS011;13329;48.402;11.718;2023-08-06T08:35:22;0.30;;;0.30;;
25391;SDS011;13329;48.402;11.718;2023-08-06T08:37:47;2.40;;;0.63;;
25391;SDS011;13329;48.402;11.718;2023-08-06T08:40:13;0.25;;;0.22;;
25391;SDS011;13329;48.402;11.718;2023-08-06T08:42:39;1.10;;;0.50;;
25391;SDS011;13329;48.402;11.718;2023-08-06T08:45:04;0.30;;;0.20;;
25391;SDS011;13329;48.402;11.718;2023-08-06T08:47:31;1.08;;;0.50;;
25391;SDS011;13329;48.402;11.718;2023-08-06T08:49:56;5.45;;;0.50;;
25391;SDS011;13329;48.402;11.718;2023-08-06T08:52:22;1.27;;;0.70;;
25391;SDS011;13329;48.402;11.718;2023-08-06T08:54:48;1.00;;;0.47;;
25391;SDS011;13329;48.402;11.718;2023-08-06T08:57:16;3.00;;;0.77;;
25391;SDS011;13329;48.402;11.718;2023-08-06T08:59:42;2.85;;;0.63;;
25391;SDS011;13329;48.402;11.718;2023-08-06T09:02:07;2.03;;;0.60;;
25391;SDS011;13329;48.402;11.718;2023-08-06T09:04:34;3.38;;;0.80;;
25391;SDS011;13329;48.402;11.718;2023-08-06T09:07:01;0.50;;;0.30;;
25391;SDS011;13329;48.402;11.718;2023-08-06T09:09:28;1.55;;;0.50;;
25391;SDS011;13329;48.402;11.718;2023-08-06T09:11:58;5.47;;;0.68;;
25391;SDS011;13329;48.402;11.718;2023-08-06T09:14:24;0.45;;;0.35;;
25391;SDS011;13329;48.402;11.718;2023-08-06T09:16:50;0.83;;;0.30;;
25391;SDS011;13329;48.402;11.718;2023-08-06T09:19:16;0.45;;;0.45;;
25391;SDS011;13329;48.402;11.718;2023-08-06T09:21:42;2.20;;;0.40;;
25391;SDS011;13329;48.402;11.718;2023-08-06T09:24:11;3.30;;;0.70;;
25391;SDS011;13329;48.402;11.718;2023-08-06T09:26:37;1.30;;;0.22;;
25391;SDS011;13329;48.402;11.718;2023-08-06T09:29:04;3.97;;;0.30;;
25391;SDS011;13329;48.402;11.718;2023-08-06T09:31:48;1.45;;;0.45;;
25391;SDS011;13329;48.402;11.718;2023-08-06T09:34:17;0.55;;;0.22;;
25391;SDS011;13329;48.402;11.718;2023-08-06T09:36:43;1.35;;;0.35;;
25391;SDS011;13329;48.402;11.718;2023-08-06T09:39:14;0.95;;;0.43;;
25391;SDS011;13329;48.402;11.718;2023-08-06T09:41:40;0.30;;;0.30;;
25391;SDS011;13329;48.402;11.718;2023-08-06T09:44:06;0.50;;;0.35;;
25391;SDS011;13329;48.402;11.718;2023-08-06T09:46:38;0.88;;;0.38;;
25391;SDS011;13329;48.402;11.718;2023-08-06T09:49:03;0.10;;;0.10;;
25391;SDS011;13329;48.402;11.718;2023-08-06T09:51:33;0.60;;;0.50;;
25391;SDS011;13329;48.402;11.718;2023-08-06T09:53:58;0.63;;;0.40;;
25391;SDS011;13329;48.402;11.718;2023-08-06T09:56:24;0.75;;;0.35;;
25391;SDS011;13329;48.402;11.718;2023-08-06T09:58:51;0.47;;;0.35;;
25391;SDS011;13329;48.402;11.718;2023-08-06T10:01:17;0.20;;;0.10;;
25391;SDS011;13329;48.402;11.718;2023-08-06T10:03:42;0.70;;;0.43;;
25391;SDS011;13329;48.402;11.718;2023-08-06T10:06:08;1.30;;;0.60;;
25391;SDS011;13329;48.402;11.718;2023-08-06T10:08:34;0.52;;;0.40;;
25391;SDS011;13329;48.402;11.718;2023-08-06T10:10:59;5.50;;;0.77;;
25391;SDS011;13329;48.402;11.718;2023-08-06T10:13:25;5.78;;;0.88;;
25391;SDS011;13329;48.402;11.718;2023-08-06T10:15:50;1.03;;;0.40;;
25391;SDS011;13329;48.402;11.718;2023-08-06T10:18:16;1.23;;;0.50;;
25391;SDS011;13329;48.402;11.718;2023-08-06T10:20:46;1.33;;;0.55;;
25391;SDS011;13329;48.402;11.718;2023-08-06T10:23:11;1.13;;;0.33;;
25391;SDS011;13329;48.402;11.718;2023-08-06T10:25:42;1.98;;;0.63;;
25391;SDS011;13329;48.402;11.718;2023-08-06T10:28:11;1.15;;;0.50;;
25391;SDS011;13329;48.402;11.718;2023-08-06T10:30:49;0.63;;;0.25;;
25391;SDS011;13329;48.402;11.718;2023-08-06T10:33:15;0.00;;;0.00;;
25391;SDS011;13329;48.402;11.718;2023-08-06T10:35:45;0.20;;;0.20;;
25391;SDS011;13329;48.402;11.718;2023-08-06T10:38:11;0.10;;;0.10;;
25391;SDS011;13329;48.402;11.718;2023-08-06T10:40:37;0.10;;;0.10;;
25391;SDS011;13329;48.402;11.718;2023-08-06T10:43:04;0.10;;;0.10;;
25391;SDS011;13329;48.402;11.718;2023-08-06T10:45:33;0.35;;;0.10;;
25391;SDS011;13329;48.402;11.718;2023-08-06T10:47:59;1.17;;;0.30;;
25391;SDS011;13329;48.402;11.718;2023-08-06T10:50:24;0.40;;;0.27;;
25391;SDS011;13329;48.402;11.718;2023-08-06T10:52:50;0.38;;;0.20;;
25391;SDS011;13329;48.402;11.718;2023-08-06T10:55:24;0.20;;;0.10;;
25391;SDS011;13329;48.402;11.718;2023-08-06T10:57:50;3.70;;;0.20;;
25391;SDS011;13329;48.402;11.718;2023-08-06T11:00:15;0.52;;;0.10;;
25391;SDS011;13329;48.402;11.718;2023-08-06T11:02:41;0.03;;;0.03;;
25391;SDS011;13329;48.402;11.718;2023-08-06T11:05:07;0.63;;;0.25;;
25391;SDS011;13329;48.402;11.718;2023-08-06T11:07:33;0.30;;;0.10;;
25391;SDS011;13329;48.402;11.718;2023-08-06T11:10:04;1.10;;;0.20;;
25391;SDS011;13329;48.402;11.718;2023-08-06T11:12:30;0.22;;;0.17;;
25391;SDS011;13329;48.402;11.718;2023-08-06T11:14:56;0.15;;;0.00;;
25391;SDS011;13329;48.402;11.718;2023-08-06T11:17:21;0.30;;;0.20;;
25391;SDS011;13329;48.402;11.718;2023-08-06T11:19:46;0.20;;;0.00;;
25391;SDS011;13329;48.402;11.718;2023-08-06T11:22:11;0.00;;;0.00;;
25391;SDS011;13329;48.402;11.718;2023-08-06T11:24:37;0.47;;;0.10;;
25391;SDS011;13329;48.402;11.718;2023-08-06T11:27:02;0.00;;;0.00;;
25391;SDS011;13329;48.402;11.718;2023-08-06T11:29:37;0.10;;;0.10;;
25391;SDS011;13329;48.402;11.718;2023-08-06T11:32:05;0.32;;;0.13;;
25391;SDS011;13329;48.402;11.718;2023-08-06T11:34:31;0.08;;;0.00;;
25391;SDS011;13329;48.402;11.718;2023-08-06T11:36:56;0.20;;;0.00;;
25391;SDS011;13329;48.402;11.718;2023-08-06T11:39:21;0.00;;;0.00;;
25391;SDS011;13329;48.402;11.718;2023-08-06T11:41:47;2.33;;;0.17;;
25391;SDS011;13329;48.402;11.718;2023-08-06T11:44:13;0.20;;;0.17;;
25391;SDS011;13329;48.402;11.718;2023-08-06T11:46:51;0.30;;;0.08;;
25391;SDS011;13329;48.402;11.718;2023-08-06T11:49:21;0.05;;;0.00;;
25391;SDS011;13329;48.402;11.718;2023-08-06T11:51:47;0.10;;;0.00;;
25391;SDS011;13329;48.402;11.718;2023-08-06T11:54:12;0.10;;;0.10;;
25391;SDS011;13329;48.402;11.718;2023-08-06T11:56:37;0.00;;;0.00;;
25391;SDS011;13329;48.402;11.718;2023-08-06T11:59:03;0.10;;;0.10;;
25391;SDS011;13329;48.402;11.718;2023-08-06T12:01:28;0.38;;;0.20;;
25391;SDS011;13329;48.402;11.718;2023-08-06T12:03:58;1.10;;;0.10;;
25391;SDS011;13329;48.402;11.718;2023-08-06T12:06:26;1.90;;;0.00;;
25391;SDS011;13329;48.402;11.718;2023-08-06T12:08:51;0.00;;;0.00;;
25391;SDS011;13329;48.402;11.718;2023-08-06T12:11:16;0.10;;;0.10;;
25391;SDS011;13329;48.402;11.718;2023-08-06T12:13:42;0.00;;;0.00;;
25391;SDS011;13329;48.402;11.718;2023-08-06T12:16:07;0.20;;;0.00;;
25391;SDS011;13329;48.402;11.718;2023-08-06T12:18:32;0.00;;;0.00;;
25391;SDS011;13329;48.402;11.718;2023-08-06T12:20:57;0.53;;;0.00;;
25391;SDS011;13329;48.402;11.718;2023-08-06T12:23:23;0.10;;;0.08;;
25391;SDS011;13329;48.402;11.718;2023-08-06T12:25:48;1.10;;;0.00;;
25391;SDS011;13329;48.402;11.718;2023-08-06T12:28:14;0.20;;;0.00;;
25391;SDS011;13329;48.402;11.718;2023-08-06T12:30:40;0.00;;;0.00;;
25391;SDS011;13329;48.402;11.718;2023-08-06T12:33:09;0.10;;;0.10;;
25391;SDS011;13329;48.402;11.718;2023-08-06T12:35:34;0.00;;;0.00;;
25391;SDS011;13329;48.402;11.718;2023-08-06T12:38:00;0.00;;;0.00;;
25391;SDS011;13329;48.402;11.718;2023-08-06T12:40:25;0.17;;;0.13;;
25391;SDS011;13329;48.402;11.718;2023-08-06T12:42:50;2.83;;;0.20;;
25391;SDS011;13329;48.402;11.718;2023-08-06T12:45:16;0.00;;;0.00;;
25391;SDS011;13329;48.402;11.718;2023-08-06T12:47:41;0.00;;;0.00;;
25391;SDS011;13329;48.402;11.718;2023-08-06T12:50:06;0.00;;;0.00;;
25391;SDS011;13329;48.402;11.718;2023-08-06T12:52:31;2.63;;;0.40;;
25391;SDS011;13329;48.402;11.718;2023-08-06T12:54:57;0.03;;;0.03;;
25391;SDS011;13329;48.402;11.718;2023-08-06T12:57:22;7.23;;;0.13;;
25391;SDS011;13329;48.402;11.718;2023-08-06T12:59:47;0.00;;;0.00;;
25391;SDS011;13329;48.402;11.718;2023-08-06T13:02:13;0.03;;;0.00;;
25391;SDS011;13329;48.402;11.718;2023-08-06T13:04:38;0.03;;;0.00;;
25391;SDS011;13329;48.402;11.718;2023-08-06T13:07:04;0.00;;;0.00;;
25391;SDS011;13329;48.402;11.718;2023-08-06T13:09:31;0.00;;;0.00;;
25391;SDS011;13329;48.402;11.718;2023-08-06T13:11:56;0.10;;;0.10;;
25391;SDS011;13329;48.402;11.718;2023-08-06T13:14:22;0.17;;;0.17;;
25391;SDS011;13329;48.402;11.718;2023-08-06T13:16:48;0.00;;;0.00;;
25391;SDS011;13329;48.402;11.718;2023-08-06T13:19:13;0.00;;;0.00;;
25391;SDS011;13329;48.402;11.718;2023-08-06T13:24:06;0.00;;;0.00;;
25391;SDS011;13329;48.402;11.718;2023-08-06T13:26:32;0.22;;;0.00;;
25391;SDS011;13329;48.402;11.718;2023-08-06T13:28:57;0.67;;;0.03;;
25391;SDS011;13329;48.402;11.718;2023-08-06T13:31:23;0.05;;;0.00;;
25391;SDS011;13329;48.402;11.718;2023-08-06T13:33:48;0.00;;;0.00;;
25391;SDS011;13329;48.402;11.718;2023-08-06T13:36:14;0.10;;;0.00;;
25391;SDS011;13329;48.402;11.718;2023-08-06T13:38:40;0.32;;;0.05;;
25391;SDS011;13329;48.402;11.718;2023-08-06T13:41:05;0.00;;;0.00;;
25391;SDS011;13329;48.402;11.718;2023-08-06T13:43:30;0.10;;;0.10;;
25391;SDS011;13329;48.402;11.718;2023-08-06T13:45:56;0.10;;;0.00;;
25391;SDS011;13329;48.402;11.718;2023-08-06T13:48:21;0.00;;;0.00;;
25391;SDS011;13329;48.402;11.718;2023-08-06T13:50:46;0.00;;;0.00;;
25391;SDS011;13329;48.402;11.718;2023-08-06T13:53:12;0.40;;;0.13;;
25391;SDS011;13329;48.402;11.718;2023-08-06T13:55:37;0.13;;;0.13;;
25391;SDS011;13329;48.402;11.718;2023-08-06T13:58:02;0.00;;;0.00;;
25391;SDS011;13329;48.402;11.718;2023-08-06T14:00:27;0.00;;;0.00;;
25391;SDS011;13329;48.402;11.718;2023-08-06T14:02:52;0.63;;;0.10;;
25391;SDS011;13329;48.402;11.718;2023-08-06T14:05:18;0.10;;;0.00;;
25391;SDS011;13329;48.402;11.718;2023-08-06T14:07:43;0.43;;;0.10;;
25391;SDS011;13329;48.402;11.718;2023-08-06T14:10:08;0.00;;;0.00;;
25391;SDS011;13329;48.402;11.718;2023-08-06T14:12:34;11.35;;;0.22;;
25391;SDS011;13329;48.402;11.718;2023-08-06T14:14:59;0.10;;;0.03;;
25391;SDS011;13329;48.402;11.718;2023-08-06T14:17:25;0.00;;;0.00;;
25391;SDS011;13329;48.402;11.718;2023-08-06T14:19:50;0.13;;;0.10;;
25391;SDS011;13329;48.402;11.718;2023-08-06T14:22:15;0.00;;;0.00;;
25391;SDS011;13329;48.402;11.718;2023-08-06T14:24:41;0.07;;;0.00;;
25391;SDS011;13329;48.402;11.718;2023-08-06T14:27:06;0.15;;;0.13;;
25391;SDS011;13329;48.402;11.718;2023-08-06T14:29:32;0.00;;;0.00;;